createdAt,value
2019-05-06T00:02:20.681Z,96163.88
2019-05-06T00:05:10.579Z,96164.07
2019-05-06T00:08:00.323Z,96166.22
2019-05-06T00:10:44.244Z,96144.61
2019-05-06T00:13:34.457Z,96171.79
2019-05-06T00:16:24.298Z,96170.03
2019-05-06T00:19:14.215Z,96148.30
2019-05-06T00:22:04.741Z,96175.30
2019-05-06T00:28:24.509Z,96175.01
2019-05-06T00:31:13.160Z,96171.87
2019-05-06T00:34:00.851Z,96176.58
2019-05-06T00:39:54.080Z,96177.06
2019-05-06T00:42:41.498Z,96180.99
2019-05-06T00:45:25.454Z,96160.72
2019-05-06T00:48:15.292Z,96184.92
2019-05-06T00:51:05.049Z,96167.89
2019-05-06T00:56:55.055Z,96161.82
2019-05-06T00:59:44.739Z,96184.13
2019-05-06T01:02:27.540Z,96189.67
2019-05-06T01:05:37.800Z,96185.40
2019-05-06T01:08:19.717Z,96189.76
2019-05-06T01:11:09.522Z,96160.17
2019-05-06T01:17:07.026Z,96181.55
2019-05-06T01:19:50.563Z,96183.57
2019-05-06T01:22:40.284Z,96186.51
2019-05-06T01:25:30.046Z,96189.75
2019-05-06T01:28:27.537Z,96191.22
2019-05-06T01:31:17.467Z,96191.66
2019-05-06T01:34:07.508Z,96191.22
2019-05-06T01:36:57.240Z,96193.48
2019-05-06T01:40:05.884Z,96195.94
2019-05-06T01:43:14.601Z,96176.64
2019-05-06T01:46:04.746Z,96198.43
2019-05-06T01:48:48.626Z,96181.59
2019-05-06T01:51:38.760Z,96198.87
2019-05-06T01:54:28.514Z,96199.42
2019-05-06T01:57:18.287Z,96204.14
2019-05-06T02:00:28.671Z,96205.37
2019-05-06T02:05:55.477Z,96208.17
2019-05-06T02:08:45.210Z,96206.30
2019-05-06T02:11:29.005Z,96203.72
2019-05-06T02:14:18.763Z,96199.57
2019-05-06T02:17:03.460Z,96211.89
2019-05-06T02:19:54.706Z,96210.11
2019-05-06T02:22:57.401Z,96215.95
2019-05-06T02:25:54.015Z,96219.08
2019-05-06T02:28:38.739Z,96219.98
2019-05-06T02:31:47.265Z,96220.55
2019-05-06T02:34:36.669Z,96223.11
2019-05-06T02:37:35.228Z,96222.91
2019-05-06T02:46:48.873Z,96224.59
2019-05-06T02:49:57.532Z,96227.60
2019-05-06T02:52:40.110Z,96225.94
2019-05-06T02:55:33.268Z,96228.52
2019-05-06T02:58:14.884Z,96228.97
2019-05-06T03:01:04.834Z,96230.08
2019-05-06T03:03:48.636Z,96231.78
2019-05-06T03:06:38.344Z,96235.02
2019-05-06T03:09:23.343Z,96236.14
2019-05-06T03:12:13.954Z,96236.47
2019-05-06T03:14:56.843Z,96242.20
2019-05-06T03:17:46.818Z,96238.04
2019-05-06T03:20:48.565Z,96240.49
2019-05-06T03:26:43.910Z,96233.78
2019-05-06T03:29:33.738Z,96216.95
2019-05-06T03:32:23.029Z,96233.88
2019-05-06T03:35:25.151Z,96234.33
2019-05-06T03:37:53.388Z,96234.77
2019-05-06T03:40:45.844Z,96237.13
2019-05-06T03:43:27.776Z,96211.28
2019-05-06T03:46:36.381Z,96242.83
2019-05-06T03:49:19.154Z,96237.41
2019-05-06T03:52:08.879Z,96234.91
2019-05-06T03:54:53.571Z,96233.09
2019-05-06T03:57:42.937Z,96235.67
2019-05-06T04:00:28.544Z,96244.09
2019-05-06T04:03:18.241Z,96244.98
2019-05-06T04:06:00.490Z,96245.67
2019-05-06T04:08:52.927Z,96248.85
2019-05-06T04:11:36.319Z,96239.78
2019-05-06T04:20:45.566Z,96260.89
2019-05-06T04:23:46.596Z,96262.47
2019-05-06T04:26:55.200Z,96273.14
2019-05-06T04:29:37.273Z,96273.60
2019-05-06T04:32:27.050Z,96276.31
2019-05-06T04:35:17.038Z,96278.65
2019-05-06T04:38:02.939Z,96264.31
2019-05-06T04:40:53.961Z,96257.23
2019-05-06T04:43:35.593Z,96283.94
2019-05-06T04:46:25.392Z,96290.77
2019-05-06T04:49:34.243Z,96288.78
2019-05-06T04:52:26.019Z,96291.68
2019-05-06T04:55:08.075Z,96267.54
2019-05-06T04:57:57.840Z,96295.17
2019-05-06T05:00:47.602Z,96299.09
2019-05-06T05:03:37.366Z,96297.03
2019-05-06T05:06:27.133Z,96299.48
2019-05-06T05:09:17.565Z,96305.00
2019-05-06T05:15:22.849Z,96308.01
2019-05-06T05:18:32.025Z,96308.25
2019-05-06T05:21:14.409Z,96308.69
2019-05-06T05:23:57.061Z,96314.99
2019-05-06T05:26:47.268Z,96313.33
2019-05-06T05:29:37.029Z,96324.55
2019-05-06T05:32:27.116Z,96332.28
2019-05-06T05:35:12.700Z,96302.42
2019-05-06T05:38:03.110Z,96316.34
2019-05-06T05:40:49.053Z,96333.08
2019-05-06T05:46:47.366Z,96309.77
2019-05-06T05:49:56.039Z,96335.27
2019-05-06T05:52:38.686Z,96325.07
2019-05-06T05:55:28.438Z,96332.81
2019-05-06T05:58:12.808Z,96318.30
2019-05-06T06:04:03.285Z,96324.98
2019-05-06T06:06:53.271Z,96331.70
2019-05-06T06:12:46.147Z,96334.72
2019-05-06T06:24:43.023Z,96343.42
2019-05-06T06:31:17.321Z,96340.77
2019-05-06T06:37:28.324Z,96337.84
2019-05-06T06:40:19.699Z,96336.77
2019-05-06T06:46:09.587Z,96334.02
2019-05-06T06:48:59.313Z,96334.02
2019-05-06T06:51:42.737Z,96333.73
2019-05-06T06:57:52.942Z,96330.98
2019-05-06T07:01:03.147Z,96333.23
2019-05-06T07:09:52.653Z,96333.49
2019-05-06T07:12:42.757Z,96334.73
2019-05-06T07:15:26.960Z,96331.69
2019-05-06T07:18:16.694Z,96333.66
2019-05-06T07:24:27.280Z,96323.36
2019-05-06T07:33:17.959Z,96321.18
2019-05-06T07:36:07.670Z,96322.66
2019-05-06T07:38:52.372Z,96316.55
2019-05-06T07:48:18.877Z,96323.45
2019-05-06T07:51:03.063Z,96321.26
2019-05-06T07:53:52.828Z,96319.41
2019-05-06T07:56:35.422Z,96324.94
2019-05-06T07:59:25.165Z,96319.50
2019-05-06T08:02:08.797Z,96318.50
2019-05-06T08:04:58.614Z,96312.69
2019-05-06T08:07:42.266Z,96310.56
2019-05-06T08:10:33.242Z,96312.80
2019-05-06T08:13:16.948Z,96317.74
2019-05-06T08:19:09.357Z,96316.40
2019-05-06T08:25:03.504Z,96320.69
2019-05-06T08:27:53.396Z,96322.80
2019-05-06T08:30:39.462Z,96312.47
2019-05-06T08:33:22.524Z,96324.05
2019-05-06T08:39:13.324Z,96321.27
2019-05-06T08:42:03.319Z,96317.16
2019-05-06T08:44:46.253Z,96317.13
2019-05-06T08:47:35.943Z,96321.42
2019-05-06T08:50:42.498Z,96315.33
2019-05-06T08:53:50.847Z,96312.52
2019-05-06T08:56:35.193Z,96318.47
2019-05-06T08:59:25.003Z,96312.37
2019-05-06T09:02:08.527Z,96302.23
2019-05-06T09:04:58.401Z,96278.24
2019-05-06T09:07:43.005Z,96307.06
2019-05-06T09:10:33.079Z,96314.79
2019-05-06T09:13:15.837Z,96311.73
2019-05-06T09:16:05.645Z,96305.34
2019-05-06T09:18:48.271Z,96315.48
2019-05-06T09:24:42.634Z,96313.75
2019-05-06T09:27:52.675Z,96325.22
2019-05-06T09:36:46.967Z,96318.98
2019-05-06T09:39:32.235Z,96324.37
2019-05-06T09:42:14.958Z,96324.36
2019-05-06T09:45:18.500Z,96319.19
2019-05-06T09:51:17.957Z,96317.10
2019-05-06T09:54:27.114Z,96318.51
2019-05-06T09:57:22.135Z,96321.09
2019-05-06T10:00:06.215Z,96314.38
2019-05-06T10:02:55.969Z,96316.97
2019-05-06T10:05:38.800Z,96306.98
2019-05-06T10:08:28.733Z,96312.98
2019-05-06T10:11:18.761Z,96291.77
2019-05-06T10:14:08.526Z,96312.30
2019-05-06T10:16:58.486Z,96312.17
2019-05-06T10:19:48.282Z,96317.39
2019-05-06T10:22:38.352Z,96319.37
2019-05-06T10:25:28.216Z,96292.92
2019-05-06T10:34:45.739Z,96318.11
2019-05-06T10:41:01.025Z,96319.24
2019-05-06T10:43:58.433Z,96316.81
2019-05-06T10:46:40.398Z,96317.23
2019-05-06T10:49:30.112Z,96319.44
2019-05-06T10:55:28.766Z,96319.05
2019-05-06T10:58:12.833Z,96319.80
2019-05-06T11:04:22.479Z,96321.65
2019-05-06T11:07:05.088Z,96308.98
2019-05-06T11:09:54.882Z,96327.56
2019-05-06T11:15:38.138Z,96331.43
2019-05-06T11:18:27.925Z,96297.98
2019-05-06T11:21:17.677Z,96311.22
2019-05-06T11:24:07.429Z,96302.50
2019-05-06T11:26:57.250Z,96332.27
2019-05-06T11:35:59.414Z,96327.23
2019-05-06T11:38:43.175Z,96323.61
2019-05-06T11:41:33.043Z,96331.61
2019-05-06T11:44:15.267Z,96323.95
2019-05-06T11:47:05.303Z,96332.95
2019-05-06T11:52:53.068Z,96329.03
2019-05-06T11:55:43.248Z,96315.74
2019-05-06T11:58:44.687Z,96329.72
2019-05-06T12:01:53.685Z,96330.09
2019-05-06T12:04:36.049Z,96324.77
2019-05-06T12:07:25.754Z,96329.36
2019-05-06T12:10:09.714Z,96324.84
2019-05-06T12:12:59.533Z,96331.70
2019-05-06T12:15:41.825Z,96333.78
2019-05-06T12:18:31.567Z,96335.41
2019-05-06T12:21:19.072Z,96330.04
2019-05-06T12:24:06.038Z,96327.37
2019-05-06T12:26:49.060Z,96334.55
2019-05-06T12:35:39.097Z,96336.38
2019-05-06T12:41:24.694Z,96322.01
2019-05-06T12:44:14.529Z,96338.63
2019-05-06T12:49:58.097Z,96331.02
2019-05-06T12:52:44.190Z,96340.31
2019-05-06T12:55:27.318Z,96336.28
2019-05-06T12:58:20.219Z,96314.66
2019-05-06T13:01:04.059Z,96335.57
2019-05-06T13:03:52.988Z,96332.56
2019-05-06T13:06:46.214Z,96316.04
2019-05-06T13:09:27.128Z,96332.02
2019-05-06T13:15:15.288Z,96328.63
2019-05-06T13:18:24.140Z,96330.52
2019-05-06T13:21:08.054Z,96330.92
2019-05-06T13:26:52.960Z,96332.40
2019-05-06T13:29:43.008Z,96338.94
2019-05-06T13:32:28.126Z,96337.91
2019-05-06T13:35:17.895Z,96332.52
2019-05-06T13:38:07.621Z,96334.72
2019-05-06T13:40:57.724Z,96337.84
2019-05-06T13:44:07.713Z,96315.77
2019-05-06T13:46:54.978Z,96329.55
2019-05-06T13:53:10.836Z,96340.67
2019-05-06T13:55:52.576Z,96335.82
2019-05-06T13:58:35.363Z,96340.11
2019-05-06T14:04:20.129Z,96337.22
2019-05-06T14:07:10.066Z,96329.99
2019-05-06T14:10:02.518Z,96334.14
2019-05-06T14:12:45.910Z,96315.16
2019-05-06T14:15:35.656Z,96339.57
2019-05-06T14:18:25.367Z,96338.98
2019-05-06T14:21:15.117Z,96328.47
2019-05-06T14:23:57.191Z,96344.84
2019-05-06T14:36:07.410Z,96342.31
2019-05-06T14:38:57.172Z,96347.38
2019-05-06T14:41:44.644Z,96338.95
2019-05-06T14:44:33.659Z,96350.84
2019-05-06T14:50:32.378Z,96334.69
2019-05-06T14:53:13.176Z,96344.09
2019-05-06T14:59:04.854Z,96338.83
2019-05-06T15:01:54.602Z,96337.46
2019-05-06T15:04:39.180Z,96346.43
2019-05-06T15:07:28.918Z,96341.73
2019-05-06T15:10:20.357Z,96340.53
2019-05-06T15:13:02.482Z,96338.41
2019-05-06T15:15:45.323Z,96328.46
2019-05-06T15:18:35.073Z,96340.78
2019-05-06T15:21:33.312Z,96341.14
2019-05-06T15:24:09.100Z,96339.53
2019-05-06T15:26:52.314Z,96339.69
2019-05-06T15:32:45.016Z,96342.77
2019-05-06T15:35:53.810Z,96336.19
2019-05-06T15:38:36.489Z,96336.02
2019-05-06T15:41:26.222Z,96315.73
2019-05-06T15:44:08.515Z,96335.87
2019-05-06T15:46:58.234Z,96337.45
2019-05-06T15:49:41.896Z,96339.62
2019-05-06T15:52:32.775Z,96342.55
2019-05-06T15:55:16.059Z,96337.78
2019-05-06T15:58:05.803Z,96346.70
2019-05-06T16:00:48.495Z,96333.47
2019-05-06T16:03:38.361Z,96331.45
2019-05-06T16:06:22.846Z,96344.14
2019-05-06T16:09:14.314Z,96336.50
2019-05-06T16:11:57.898Z,96341.34
2019-05-06T16:14:47.655Z,96336.09
2019-05-06T16:17:32.793Z,96340.36
2019-05-06T16:20:22.670Z,96333.59
2019-05-06T16:23:24.319Z,96316.44
2019-05-06T16:26:14.134Z,96314.42
2019-05-06T16:28:56.427Z,96304.47
2019-05-06T16:31:46.179Z,96329.06
2019-05-06T16:34:28.134Z,96324.88
2019-05-06T16:37:17.883Z,96313.47
2019-05-06T16:40:02.323Z,96331.25
2019-05-06T16:45:53.607Z,96328.42
2019-05-06T16:48:45.512Z,96314.78
2019-05-06T16:51:27.239Z,96324.73
2019-05-06T16:54:16.963Z,96324.53
2019-05-06T16:57:06.576Z,96325.55
2019-05-06T16:59:56.283Z,96314.11
2019-05-06T17:08:39.643Z,96325.39
2019-05-06T17:11:25.758Z,96320.64
2019-05-06T17:13:56.373Z,96330.20
2019-05-06T17:16:46.087Z,96330.41
2019-05-06T17:19:29.087Z,96327.31
2019-05-06T17:22:38.171Z,96315.23
2019-05-06T17:25:22.449Z,96329.50
2019-05-06T17:28:33.431Z,96306.81
2019-05-06T17:34:31.504Z,96334.66
2019-05-06T17:37:39.445Z,96319.11
2019-05-06T17:40:29.269Z,96341.33
2019-05-06T17:43:13.012Z,96341.11
2019-05-06T17:46:22.123Z,96343.47
2019-05-06T17:49:12.934Z,96343.37
2019-05-06T17:54:58.498Z,96351.22
2019-05-06T17:57:48.217Z,96339.52
2019-05-06T18:00:32.330Z,96354.27
2019-05-06T18:06:26.113Z,96353.19
2019-05-06T18:09:09.958Z,96336.63
2019-05-06T18:12:02.902Z,96358.81
2019-05-06T18:14:48.230Z,96357.27
2019-05-06T18:17:33.027Z,96358.53
2019-05-06T18:20:34.518Z,96361.06
2019-05-06T18:23:19.004Z,96366.50
2019-05-06T18:29:12.365Z,96366.73
2019-05-06T18:32:23.181Z,96371.95
2019-05-06T18:35:05.454Z,96353.66
2019-05-06T18:37:55.194Z,96358.97
2019-05-06T18:40:37.662Z,96370.20
2019-05-06T18:43:27.404Z,96362.31
2019-05-06T18:46:12.099Z,96371.98
2019-05-06T18:49:02.561Z,96373.30
2019-05-06T18:51:45.748Z,96364.34
2019-05-06T18:54:35.525Z,96375.97
2019-05-06T18:57:18.096Z,96380.55
2019-05-06T19:03:06.473Z,96400.09
2019-05-06T19:05:49.628Z,96374.84
2019-05-06T19:11:41.461Z,96400.09
2019-05-06T19:17:18.251Z,96411.97
2019-05-06T19:20:21.962Z,96412.32
2019-05-06T19:23:04.901Z,96390.77
2019-05-06T19:25:54.897Z,96407.72
2019-05-06T19:28:37.163Z,96391.91
2019-05-06T19:31:19.182Z,96418.75
2019-05-06T19:34:28.057Z,96420.27
2019-05-06T19:37:17.887Z,96419.52
2019-05-06T19:40:07.851Z,96419.64
2019-05-06T19:43:16.863Z,96413.67
2019-05-06T19:45:59.561Z,96415.51
2019-05-06T19:48:49.371Z,96390.41
2019-05-06T19:51:39.145Z,96424.35
2019-05-06T19:54:28.953Z,96422.87
2019-05-06T19:57:18.740Z,96409.42
2019-05-06T20:00:08.681Z,96416.52
2019-05-06T20:02:58.409Z,96423.72
2019-05-06T20:06:02.313Z,96411.97
2019-05-06T20:11:51.475Z,96413.08
2019-05-06T20:14:41.857Z,96415.63
2019-05-06T20:17:26.809Z,96411.50
2019-05-06T20:20:16.546Z,96414.78
2019-05-06T20:22:58.851Z,96413.05
2019-05-06T20:25:48.623Z,96401.14
2019-05-06T20:28:32.195Z,96409.34
2019-05-06T20:31:22.701Z,96409.26
2019-05-06T20:34:06.506Z,96403.88
2019-05-06T20:36:56.277Z,96386.23
2019-05-06T20:39:38.703Z,96379.48
2019-05-06T20:42:28.487Z,96401.11
2019-05-06T20:45:12.695Z,96395.91
2019-05-06T20:48:03.208Z,96396.56
2019-05-06T20:50:48.374Z,96404.61
2019-05-06T20:53:38.083Z,96396.23
2019-05-06T20:56:21.956Z,96394.84
2019-05-06T20:59:12.270Z,96397.16
2019-05-06T21:01:56.129Z,96384.82
2019-05-06T21:04:46.007Z,96369.57
2019-05-06T21:10:32.727Z,96389.34
2019-05-06T21:13:29.536Z,96391.08
2019-05-06T21:16:05.717Z,96386.40
2019-05-06T21:18:58.473Z,96365.77
2019-05-06T21:24:38.738Z,96380.19
2019-05-06T21:27:09.585Z,96376.48
2019-05-06T21:29:59.550Z,96375.58
2019-05-06T21:32:44.198Z,96375.64
2019-05-06T21:35:26.435Z,96377.38
2019-05-06T21:38:16.273Z,96376.33
2019-05-06T21:41:06.046Z,96372.03
2019-05-06T21:43:50.467Z,96372.30
2019-05-06T21:46:42.695Z,96367.30
2019-05-06T21:49:24.619Z,96355.91
2019-05-06T21:52:14.502Z,96363.33
2019-05-06T21:55:04.626Z,96365.37
2019-05-06T21:57:54.384Z,96354.77
2019-05-06T22:01:03.227Z,96359.17
2019-05-06T22:03:53.423Z,96358.81
2019-05-06T22:06:36.204Z,96353.13
2019-05-06T22:09:26.005Z,96357.04
2019-05-06T22:12:15.816Z,96359.03
2019-05-06T22:15:04.838Z,96352.97
2019-05-06T22:17:47.006Z,96361.88
2019-05-06T22:20:28.966Z,96357.36
2019-05-06T22:23:18.683Z,96345.04
2019-05-06T22:26:13.012Z,96357.90
2019-05-06T22:28:56.813Z,96352.41
2019-05-06T22:31:38.895Z,96351.72
2019-05-06T22:34:28.639Z,96355.25
2019-05-06T22:37:12.548Z,96346.62
2019-05-06T22:40:02.535Z,96348.45
2019-05-06T22:42:44.652Z,96335.30
2019-05-06T22:45:34.519Z,96325.30
2019-05-06T22:48:24.740Z,96335.01
2019-05-06T22:51:14.503Z,96336.97
2019-05-06T22:54:04.334Z,96342.56
2019-05-06T22:57:06.737Z,96339.34
2019-05-06T22:59:49.128Z,96336.31
2019-05-06T23:02:57.681Z,96340.91
2019-05-06T23:05:42.326Z,96339.23
2019-05-06T23:08:26.710Z,96339.19
2019-05-06T23:11:16.037Z,96323.67
2019-05-06T23:13:58.349Z,96347.66
2019-05-06T23:16:48.193Z,96342.50
2019-05-06T23:19:37.979Z,96319.95
2019-05-06T23:22:27.724Z,96345.16
2019-05-06T23:25:12.558Z,96328.65
2019-05-06T23:31:04.659Z,96342.89
2019-05-06T23:33:54.411Z,96344.20
2019-05-06T23:36:55.957Z,96348.81
2019-05-06T23:40:25.537Z,96348.15
2019-05-06T23:43:26.760Z,96346.64
2019-05-06T23:46:54.663Z,96350.66
2019-05-06T23:49:57.274Z,96349.97
2019-05-06T23:53:25.163Z,96345.16
2019-05-06T23:56:26.868Z,96348.16
